createdAt,value
2023-01-31T00:01:41.071Z,8.80
2023-01-31T00:04:11.423Z,8.63
2023-01-31T00:06:43.219Z,8.13
2023-01-31T00:09:11.891Z,7.78
2023-01-31T00:11:39.240Z,7.78
2023-01-31T00:14:07.140Z,9.27
2023-01-31T00:16:34.869Z,8.60
2023-01-31T00:19:01.640Z,10.43
2023-01-31T00:21:29.756Z,9.05
2023-01-31T00:23:58.327Z,8.30
2023-01-31T00:26:29.623Z,7.80
2023-01-31T00:28:57.647Z,10.75
2023-01-31T00:31:26.286Z,7.90
2023-01-31T00:33:54.093Z,7.93
2023-01-31T00:36:24.744Z,10.70
2023-01-31T00:38:53.025Z,8.68
2023-01-31T00:41:21.290Z,11.45
2023-01-31T00:43:48.081Z,8.73
2023-01-31T00:46:14.747Z,9.70
2023-01-31T00:48:41.353Z,8.35
2023-01-31T00:51:08.333Z,9.30
2023-01-31T00:53:35.498Z,8.38
2023-01-31T00:56:16.052Z,7.88
2023-01-31T00:58:43.063Z,9.82
2023-01-31T01:01:12.788Z,9.05
2023-01-31T01:03:40.477Z,7.45
2023-01-31T01:06:08.131Z,11.50
2023-01-31T01:08:36.399Z,9.57
2023-01-31T01:11:13.301Z,9.95
2023-01-31T01:13:40.626Z,8.90
2023-01-31T01:16:11.948Z,8.25
2023-01-31T01:18:38.787Z,10.52
2023-01-31T01:21:10.301Z,8.18
2023-01-31T01:23:38.401Z,7.93
2023-01-31T01:26:05.424Z,9.57
2023-01-31T01:28:35.458Z,10.02
2023-01-31T01:31:09.766Z,9.88
2023-01-31T01:33:36.822Z,7.57
2023-01-31T01:36:09.290Z,9.60
2023-01-31T01:38:37.165Z,9.07
2023-01-31T01:41:04.952Z,10.35
2023-01-31T01:43:55.348Z,9.05
2023-01-31T01:46:36.220Z,9.35
2023-01-31T01:49:32.813Z,10.27
2023-01-31T01:52:02.630Z,9.35
2023-01-31T01:54:36.496Z,7.50
2023-01-31T01:57:05.987Z,11.80
2023-01-31T01:59:50.411Z,10.63
2023-01-31T02:02:17.275Z,9.95
2023-01-31T02:04:47.179Z,11.93
2023-01-31T02:07:13.930Z,8.25
2023-01-31T02:09:52.175Z,10.25
2023-01-31T02:12:18.756Z,8.95
2023-01-31T02:14:47.383Z,9.00
2023-01-31T02:17:15.739Z,8.15
2023-01-31T02:19:48.194Z,9.32
2023-01-31T02:22:17.252Z,9.15
2023-01-31T02:25:07.511Z,7.90
2023-01-31T02:28:01.901Z,9.35
2023-01-31T02:30:45.418Z,9.73
2023-01-31T02:33:30.596Z,9.10
2023-01-31T02:36:02.457Z,8.85
2023-01-31T02:38:42.436Z,9.60
2023-01-31T02:41:24.104Z,8.63
2023-01-31T02:44:24.829Z,10.13
2023-01-31T02:46:56.755Z,10.20
2023-01-31T02:49:35.217Z,6.72
2023-01-31T02:52:17.089Z,8.93
2023-01-31T02:55:22.735Z,9.05
2023-01-31T02:57:51.627Z,6.93
2023-01-31T03:00:19.958Z,7.68
2023-01-31T03:02:46.671Z,6.90
2023-01-31T03:05:18.406Z,8.30
2023-01-31T03:07:52.778Z,7.20
2023-01-31T03:10:35.176Z,7.30
2023-01-31T03:13:29.625Z,8.05
2023-01-31T03:16:34.941Z,11.82
2023-01-31T03:19:13.659Z,9.02
2023-01-31T03:21:47.297Z,8.38
2023-01-31T03:24:17.285Z,9.68
2023-01-31T03:26:44.571Z,8.90
2023-01-31T03:29:14.896Z,10.13
2023-01-31T03:31:46.119Z,8.32
2023-01-31T03:34:14.672Z,7.47
2023-01-31T03:36:51.063Z,9.75
2023-01-31T03:39:17.738Z,8.38
2023-01-31T03:41:55.515Z,9.20
2023-01-31T03:44:40.994Z,9.27
2023-01-31T03:47:17.911Z,8.15
2023-01-31T03:49:46.056Z,9.05
2023-01-31T03:52:17.528Z,9.60
2023-01-31T03:54:50.857Z,7.35
2023-01-31T03:57:24.105Z,11.10
2023-01-31T03:59:54.385Z,8.95
2023-01-31T04:02:24.854Z,9.55
2023-01-31T04:04:56.920Z,8.70
2023-01-31T04:07:24.011Z,8.73
2023-01-31T04:09:50.694Z,11.95
2023-01-31T04:12:17.167Z,9.02
2023-01-31T04:14:43.728Z,8.63
2023-01-31T04:17:10.190Z,10.35
2023-01-31T04:19:37.691Z,9.98
2023-01-31T04:22:04.180Z,11.32
2023-01-31T04:24:30.713Z,8.32
2023-01-31T04:26:57.304Z,11.90
2023-01-31T04:29:23.843Z,9.70
2023-01-31T04:31:50.465Z,10.30
2023-01-31T04:34:16.999Z,11.27
2023-01-31T04:36:43.502Z,10.65
2023-01-31T04:39:11.187Z,9.02
2023-01-31T04:41:37.812Z,8.43
2023-01-31T04:44:04.388Z,9.40
2023-01-31T04:46:31.133Z,8.68
2023-01-31T04:48:57.614Z,6.95
2023-01-31T04:51:24.047Z,8.18
2023-01-31T04:53:50.524Z,10.38
2023-01-31T04:56:17.051Z,10.10
2023-01-31T04:58:44.163Z,9.57
2023-01-31T05:01:10.769Z,8.88
2023-01-31T05:03:37.360Z,10.77
2023-01-31T05:06:04.090Z,9.68
2023-01-31T05:08:30.557Z,10.50
2023-01-31T05:10:59.066Z,11.85
2023-01-31T05:13:25.713Z,9.45
2023-01-31T05:15:52.269Z,11.27
2023-01-31T05:18:18.802Z,12.63
2023-01-31T05:20:45.331Z,13.50
2023-01-31T05:23:11.824Z,11.45
2023-01-31T05:25:38.384Z,11.43
2023-01-31T05:28:05.439Z,11.55
2023-01-31T05:30:32.497Z,12.48
2023-01-31T05:32:59.225Z,13.52
2023-01-31T05:35:25.760Z,11.57
2023-01-31T05:37:54.550Z,17.25
2023-01-31T05:40:22.170Z,15.43
2023-01-31T05:43:00.976Z,14.20
2023-01-31T05:45:28.437Z,16.13
2023-01-31T05:47:55.230Z,17.50
2023-01-31T05:50:22.251Z,23.00
2023-01-31T05:52:59.589Z,21.35
2023-01-31T05:55:27.853Z,21.17
2023-01-31T05:57:54.611Z,18.63
2023-01-31T06:00:22.400Z,22.73
2023-01-31T06:02:49.541Z,21.13
2023-01-31T06:05:16.532Z,22.10
2023-01-31T06:07:43.126Z,29.42
2023-01-31T06:10:11.698Z,24.05
2023-01-31T06:12:38.194Z,30.10
2023-01-31T06:15:05.040Z,25.10
2023-01-31T06:17:31.615Z,27.85
2023-01-31T06:19:58.283Z,27.65
2023-01-31T06:22:24.782Z,27.77
2023-01-31T06:24:51.305Z,30.02
2023-01-31T06:27:17.802Z,29.52
2023-01-31T06:29:44.364Z,27.92
2023-01-31T06:32:10.853Z,25.58
2023-01-31T06:34:37.799Z,24.85
2023-01-31T06:37:04.264Z,29.00
2023-01-31T06:39:30.724Z,24.92
2023-01-31T06:41:57.672Z,28.42
2023-01-31T06:44:25.957Z,25.25
2023-01-31T06:46:53.156Z,23.85
2023-01-31T06:49:19.656Z,25.52
2023-01-31T06:51:46.128Z,25.58
2023-01-31T06:54:12.580Z,26.60
2023-01-31T06:56:39.021Z,26.90
2023-01-31T06:59:05.470Z,27.33
2023-01-31T07:01:31.920Z,24.48
2023-01-31T07:03:58.504Z,25.23
2023-01-31T07:06:25.069Z,23.33
2023-01-31T07:08:52.525Z,24.08
2023-01-31T07:11:18.982Z,26.42
2023-01-31T07:13:47.818Z,24.92
2023-01-31T07:16:16.932Z,25.17
2023-01-31T07:18:43.545Z,21.30
2023-01-31T07:21:10.836Z,24.63
2023-01-31T07:23:37.544Z,20.38
2023-01-31T07:26:05.785Z,20.38
2023-01-31T07:28:32.323Z,19.60
2023-01-31T07:31:11.708Z,19.45
2023-01-31T07:33:39.659Z,24.48
2023-01-31T07:36:07.937Z,20.88
2023-01-31T07:38:35.240Z,21.40
2023-01-31T07:41:03.380Z,18.55
2023-01-31T07:43:31.084Z,18.70
2023-01-31T07:45:57.901Z,23.48
2023-01-31T07:48:24.730Z,18.30
2023-01-31T07:51:00.161Z,19.55
2023-01-31T07:53:28.635Z,21.83
2023-01-31T07:55:55.547Z,18.88
2023-01-31T07:58:22.137Z,21.35
2023-01-31T08:01:07.480Z,25.73
2023-01-31T08:03:34.215Z,18.15
2023-01-31T08:06:12.056Z,20.85
2023-01-31T08:08:40.515Z,22.20
2023-01-31T08:11:07.458Z,17.17
2023-01-31T08:13:35.531Z,20.13
2023-01-31T08:16:06.104Z,19.83
2023-01-31T08:18:33.423Z,18.92
2023-01-31T08:21:00.033Z,18.20
2023-01-31T08:23:30.997Z,20.60
2023-01-31T08:26:30.556Z,18.38
2023-01-31T08:28:57.502Z,15.40
2023-01-31T08:31:26.514Z,17.05
2023-01-31T08:33:54.107Z,13.50
2023-01-31T08:36:23.588Z,13.23
2023-01-31T08:38:51.013Z,14.45
2023-01-31T08:41:20.335Z,11.38
2023-01-31T08:43:58.221Z,10.38
2023-01-31T08:46:30.770Z,9.85
2023-01-31T08:48:58.102Z,12.10
2023-01-31T08:51:25.046Z,15.15
2023-01-31T08:53:51.549Z,10.95
2023-01-31T08:56:19.450Z,11.75
2023-01-31T08:58:46.006Z,12.40
2023-01-31T09:01:17.899Z,11.50
2023-01-31T09:03:45.966Z,11.50
2023-01-31T09:06:15.765Z,11.65
2023-01-31T09:08:42.447Z,12.32
2023-01-31T09:11:09.299Z,11.77
2023-01-31T09:13:36.129Z,14.25
2023-01-31T09:16:07.767Z,13.88
2023-01-31T09:18:36.094Z,12.95
2023-01-31T09:21:05.897Z,13.05
2023-01-31T09:23:32.594Z,15.93
2023-01-31T09:25:59.108Z,17.35
2023-01-31T09:28:26.099Z,16.20
2023-01-31T09:30:53.614Z,17.00
2023-01-31T09:33:21.718Z,17.40
2023-01-31T09:35:59.150Z,17.80
2023-01-31T09:38:26.391Z,20.10
2023-01-31T09:40:56.199Z,20.92
2023-01-31T09:43:27.665Z,22.85
2023-01-31T09:45:59.035Z,22.92
2023-01-31T09:48:31.181Z,19.52
2023-01-31T09:50:59.243Z,20.55
2023-01-31T09:53:32.812Z,23.30
2023-01-31T09:56:14.378Z,16.40
2023-01-31T09:58:52.737Z,16.00
2023-01-31T10:01:53.435Z,16.08
2023-01-31T10:04:38.120Z,17.55
2023-01-31T10:07:26.114Z,13.98
2023-01-31T10:10:00.296Z,18.30
2023-01-31T10:12:42.726Z,19.13
2023-01-31T10:15:35.131Z,17.05
2023-01-31T10:18:10.670Z,16.17
2023-01-31T10:20:46.332Z,18.65
2023-01-31T10:23:21.794Z,20.33
2023-01-31T10:26:00.315Z,17.45
2023-01-31T10:28:43.150Z,18.10
2023-01-31T10:31:37.568Z,22.10
2023-01-31T10:34:17.499Z,17.20
2023-01-31T10:37:01.628Z,14.02
2023-01-31T10:39:34.180Z,15.55
2023-01-31T10:42:13.019Z,15.43
2023-01-31T10:44:54.708Z,13.35
2023-01-31T10:47:28.688Z,12.57
2023-01-31T10:49:55.767Z,12.95
2023-01-31T10:52:34.457Z,13.43
2023-01-31T10:55:26.024Z,15.63
2023-01-31T10:57:53.238Z,14.63
2023-01-31T11:00:23.913Z,13.27
2023-01-31T11:02:50.545Z,12.48
2023-01-31T11:05:22.005Z,11.55
2023-01-31T11:07:50.411Z,11.43
2023-01-31T11:10:24.193Z,11.95
2023-01-31T11:13:01.853Z,12.18
2023-01-31T11:15:35.454Z,14.75
2023-01-31T11:18:02.508Z,12.10
2023-01-31T11:20:32.386Z,10.75
2023-01-31T11:23:01.199Z,13.27
2023-01-31T11:25:30.729Z,10.68
2023-01-31T11:28:00.470Z,13.77
2023-01-31T11:30:33.156Z,14.52
2023-01-31T11:32:59.663Z,16.45
2023-01-31T11:35:36.644Z,13.38
2023-01-31T11:38:12.031Z,11.68
2023-01-31T11:40:40.649Z,10.80
2023-01-31T11:43:24.955Z,13.82
2023-01-31T11:46:03.137Z,13.07
2023-01-31T11:48:42.229Z,10.48
2023-01-31T11:51:10.704Z,14.05
2023-01-31T11:53:43.114Z,13.68
2023-01-31T11:56:22.709Z,9.77
2023-01-31T11:58:53.997Z,12.05
2023-01-31T12:01:22.956Z,14.13
2023-01-31T12:04:02.442Z,10.25
2023-01-31T12:06:40.256Z,10.50
2023-01-31T12:09:27.842Z,10.95
2023-01-31T12:11:59.054Z,12.13
2023-01-31T12:14:39.485Z,11.85
2023-01-31T12:17:13.896Z,8.95
2023-01-31T12:20:25.195Z,11.23
2023-01-31T12:23:29.367Z,11.73
2023-01-31T12:26:15.446Z,10.50
2023-01-31T12:28:59.121Z,12.68
2023-01-31T12:34:07.671Z,8.90
2023-01-31T12:36:42.633Z,6.55
2023-01-31T12:39:24.080Z,15.68
2023-01-31T12:41:59.466Z,8.32
2023-01-31T12:44:25.920Z,10.90
2023-01-31T12:47:10.057Z,10.75
2023-01-31T12:49:52.748Z,9.50
2023-01-31T12:52:37.747Z,5.72
2023-01-31T12:55:10.204Z,15.35
2023-01-31T12:57:49.990Z,9.20
2023-01-31T13:00:19.220Z,8.80
2023-01-31T13:02:54.582Z,8.02
2023-01-31T13:05:46.902Z,9.10
2023-01-31T13:08:18.641Z,10.63
2023-01-31T13:10:56.473Z,6.05
2023-01-31T13:13:27.744Z,7.13
2023-01-31T13:16:04.590Z,5.28
2023-01-31T13:18:35.112Z,10.32
2023-01-31T13:21:07.377Z,8.15
2023-01-31T13:23:42.512Z,9.35
2023-01-31T13:26:17.077Z,6.43
2023-01-31T13:29:07.732Z,6.30
2023-01-31T13:31:40.570Z,8.52
2023-01-31T13:34:17.289Z,6.55
2023-01-31T13:36:53.977Z,9.43
2023-01-31T13:39:25.420Z,6.97
2023-01-31T13:41:52.466Z,7.15
2023-01-31T13:44:20.875Z,20.23
2023-01-31T13:47:01.392Z,24.20
2023-01-31T13:50:03.657Z,29.15
2023-01-31T13:52:51.527Z,32.95
2023-01-31T13:55:27.677Z,8.52
2023-01-31T13:58:25.397Z,11.88
2023-01-31T14:01:02.797Z,6.72
2023-01-31T14:03:29.432Z,5.72
2023-01-31T14:06:01.200Z,9.77
2023-01-31T14:08:28.893Z,4.22
2023-01-31T14:10:57.441Z,4.10
2023-01-31T14:13:31.692Z,5.45
2023-01-31T14:15:58.877Z,6.65
2023-01-31T14:18:45.348Z,6.05
2023-01-31T14:21:29.908Z,7.43
2023-01-31T14:24:01.617Z,4.43
2023-01-31T14:26:30.986Z,6.65
2023-01-31T14:28:57.679Z,5.85
2023-01-31T14:31:26.552Z,7.35
2023-01-31T14:33:57.391Z,4.60
2023-01-31T14:36:49.599Z,4.80
2023-01-31T14:39:42.113Z,8.25
2023-01-31T14:42:20.933Z,7.85
2023-01-31T14:45:04.399Z,5.22
2023-01-31T14:47:37.802Z,4.20
2023-01-31T14:50:49.969Z,6.80
2023-01-31T14:53:25.383Z,6.07
2023-01-31T14:56:08.458Z,4.28
2023-01-31T14:58:36.145Z,6.35
2023-01-31T15:01:07.482Z,7.15
2023-01-31T15:03:48.321Z,8.52
2023-01-31T15:06:37.577Z,6.35
2023-01-31T15:09:16.246Z,6.65
2023-01-31T15:11:44.923Z,6.40
2023-01-31T15:14:35.651Z,5.28
2023-01-31T15:17:40.461Z,5.03
2023-01-31T15:20:23.725Z,5.35
2023-01-31T15:22:53.996Z,5.40
2023-01-31T15:25:34.802Z,4.93
2023-01-31T15:28:02.939Z,4.03
2023-01-31T15:30:35.434Z,5.20
2023-01-31T15:33:29.080Z,4.93
2023-01-31T15:36:05.353Z,4.53
2023-01-31T15:38:41.410Z,4.95
2023-01-31T15:41:20.989Z,6.05
2023-01-31T15:43:48.453Z,4.85
2023-01-31T15:46:22.319Z,7.45
2023-01-31T15:48:49.490Z,6.63
2023-01-31T15:51:18.389Z,4.45
2023-01-31T15:53:45.093Z,5.85
2023-01-31T15:56:24.198Z,5.88
2023-01-31T15:58:54.251Z,7.10
2023-01-31T16:01:21.253Z,8.60
2023-01-31T16:03:56.660Z,3.80
2023-01-31T16:06:27.520Z,7.18
2023-01-31T16:09:04.305Z,4.32
2023-01-31T16:11:33.824Z,3.72
2023-01-31T16:14:03.667Z,5.35
2023-01-31T16:16:31.374Z,10.88
2023-01-31T16:18:59.714Z,6.35
2023-01-31T16:21:30.962Z,4.93
2023-01-31T16:23:59.945Z,4.95
2023-01-31T16:26:32.417Z,10.50
2023-01-31T16:29:02.468Z,5.55
2023-01-31T16:31:34.134Z,6.47
2023-01-31T16:34:04.774Z,6.82
2023-01-31T16:36:34.708Z,4.60
2023-01-31T16:39:06.073Z,7.72
2023-01-31T16:41:47.853Z,4.75
2023-01-31T16:44:18.463Z,7.13
2023-01-31T16:46:47.768Z,5.88
2023-01-31T16:49:28.699Z,6.80
2023-01-31T16:52:16.308Z,7.35
2023-01-31T16:54:51.777Z,4.72
2023-01-31T16:57:38.166Z,5.70
2023-01-31T17:00:27.534Z,5.95
2023-01-31T17:02:56.548Z,6.90
2023-01-31T17:05:49.440Z,7.07
2023-01-31T17:08:18.681Z,5.03
2023-01-31T17:10:47.917Z,6.80
2023-01-31T17:13:22.231Z,7.63
2023-01-31T17:15:49.455Z,6.63
2023-01-31T17:18:16.158Z,4.82
2023-01-31T17:20:46.458Z,6.63
2023-01-31T17:23:13.858Z,7.38
2023-01-31T17:25:42.731Z,6.22
2023-01-31T17:28:10.789Z,4.78
2023-01-31T17:30:42.774Z,6.35
2023-01-31T17:33:13.522Z,3.95
2023-01-31T17:35:42.902Z,8.73
2023-01-31T17:38:09.390Z,9.18
2023-01-31T17:40:39.617Z,12.07
2023-01-31T17:43:06.531Z,9.18
2023-01-31T17:45:33.287Z,4.72
2023-01-31T17:47:59.839Z,7.70
2023-01-31T17:50:28.537Z,6.82
2023-01-31T17:52:56.034Z,7.88
2023-01-31T17:55:24.404Z,5.22
2023-01-31T17:57:51.139Z,5.78
2023-01-31T18:00:19.207Z,5.25
2023-01-31T18:02:46.099Z,5.50
2023-01-31T18:05:18.641Z,6.38
2023-01-31T18:07:49.397Z,8.73
2023-01-31T18:10:16.260Z,11.00
2023-01-31T18:12:42.751Z,5.60
2023-01-31T18:15:10.042Z,4.85
2023-01-31T18:17:36.576Z,6.20
2023-01-31T18:20:03.737Z,7.03
2023-01-31T18:22:30.287Z,5.72
2023-01-31T18:24:56.810Z,5.40
2023-01-31T18:27:23.314Z,9.90
2023-01-31T18:29:49.780Z,5.47
2023-01-31T18:32:17.965Z,5.70
2023-01-31T18:34:45.731Z,10.18
2023-01-31T18:37:19.252Z,5.32
2023-01-31T18:42:19.707Z,5.75
2023-01-31T18:44:47.042Z,5.32
2023-01-31T18:47:15.090Z,4.68
2023-01-31T18:49:41.641Z,8.73
2023-01-31T18:52:08.884Z,8.30
2023-01-31T18:54:35.513Z,7.05
2023-01-31T18:57:02.121Z,5.65
2023-01-31T18:59:28.625Z,9.73
2023-01-31T19:01:55.189Z,7.28
2023-01-31T19:04:21.740Z,6.47
2023-01-31T19:06:51.378Z,6.72
2023-01-31T19:09:18.238Z,8.93
2023-01-31T19:11:45.214Z,7.07
2023-01-31T19:14:13.695Z,7.72
2023-01-31T19:16:41.897Z,7.60
2023-01-31T19:19:09.771Z,9.48
2023-01-31T19:21:37.739Z,8.40
2023-01-31T19:24:07.703Z,11.38
2023-01-31T19:26:35.204Z,9.13
2023-01-31T19:29:03.443Z,7.43
2023-01-31T19:31:31.382Z,9.70
2023-01-31T19:34:03.858Z,9.88
2023-01-31T19:36:33.052Z,11.05
2023-01-31T19:39:01.070Z,7.18
2023-01-31T19:41:28.758Z,12.25
2023-01-31T19:43:57.249Z,7.97
2023-01-31T19:46:27.093Z,7.45
2023-01-31T19:48:55.311Z,7.25
2023-01-31T19:51:23.077Z,8.00
2023-01-31T19:53:49.962Z,8.60
2023-01-31T19:56:16.755Z,9.38
2023-01-31T19:58:43.572Z,8.90
2023-01-31T20:01:13.210Z,7.35
2023-01-31T20:03:40.046Z,8.35
2023-01-31T20:06:11.844Z,10.07
2023-01-31T20:08:38.896Z,8.88
2023-01-31T20:11:07.627Z,10.35
2023-01-31T20:13:38.039Z,8.05
2023-01-31T20:16:09.807Z,10.23
2023-01-31T20:18:37.970Z,8.40
2023-01-31T20:21:04.981Z,9.07
2023-01-31T20:23:32.015Z,6.25
2023-01-31T20:25:58.915Z,6.40
2023-01-31T20:28:26.790Z,6.53
2023-01-31T20:30:54.143Z,8.90
2023-01-31T20:33:20.916Z,7.18
2023-01-31T20:35:47.485Z,7.45
2023-01-31T20:38:17.192Z,7.32
2023-01-31T20:40:50.306Z,7.90
2023-01-31T20:43:17.813Z,9.27
2023-01-31T20:45:44.566Z,7.53
2023-01-31T20:48:11.657Z,12.00
2023-01-31T20:50:38.414Z,11.10
2023-01-31T20:53:04.908Z,10.18
2023-01-31T20:55:31.471Z,9.43
2023-01-31T20:57:58.545Z,6.15
2023-01-31T21:00:25.664Z,9.40
2023-01-31T21:02:52.239Z,6.85
2023-01-31T21:05:18.839Z,5.38
2023-01-31T21:07:45.482Z,7.50
2023-01-31T21:10:13.060Z,5.65
2023-01-31T21:12:39.663Z,6.97
2023-01-31T21:15:06.670Z,6.53
2023-01-31T21:17:39.998Z,11.48
2023-01-31T21:22:34.876Z,8.10
2023-01-31T21:25:01.746Z,6.10
2023-01-31T21:27:28.351Z,4.97
2023-01-31T21:29:54.898Z,6.63
2023-01-31T21:32:21.484Z,7.25
2023-01-31T21:34:48.051Z,5.85
2023-01-31T21:37:14.626Z,5.45
2023-01-31T21:39:41.133Z,6.57
2023-01-31T21:42:15.836Z,6.25
2023-01-31T21:44:47.449Z,5.93
2023-01-31T21:47:15.750Z,6.78
2023-01-31T21:49:42.670Z,6.82
2023-01-31T21:52:10.025Z,5.40
2023-01-31T21:54:37.304Z,7.53
2023-01-31T21:57:04.078Z,5.55
2023-01-31T21:59:32.342Z,4.88
2023-01-31T22:01:59.580Z,5.75
2023-01-31T22:04:26.175Z,5.93
2023-01-31T22:06:53.522Z,6.95
2023-01-31T22:09:19.987Z,5.57
2023-01-31T22:11:47.599Z,7.65
2023-01-31T22:14:16.448Z,4.75
2023-01-31T22:16:43.727Z,7.88
2023-01-31T22:19:12.309Z,4.05
2023-01-31T22:21:40.352Z,4.13
2023-01-31T22:24:08.809Z,6.00
2023-01-31T22:26:38.510Z,6.13
2023-01-31T22:29:07.413Z,6.43
2023-01-31T22:31:34.387Z,5.00
2023-01-31T22:34:01.551Z,4.13
2023-01-31T22:36:28.275Z,5.00
2023-01-31T22:38:54.894Z,6.82
2023-01-31T22:41:21.827Z,5.38
2023-01-31T22:43:51.171Z,6.45
2023-01-31T22:46:20.798Z,5.10
2023-01-31T22:48:51.013Z,4.90
2023-01-31T22:51:20.452Z,5.65
2023-01-31T22:53:47.959Z,4.07
2023-01-31T22:56:18.102Z,4.47
2023-01-31T22:58:44.852Z,5.72
2023-01-31T23:01:22.410Z,4.53
2023-01-31T23:03:49.399Z,5.95
2023-01-31T23:06:17.785Z,7.95
2023-01-31T23:08:45.111Z,8.55
2023-01-31T23:11:13.979Z,7.78
2023-01-31T23:13:41.818Z,7.57
2023-01-31T23:16:10.617Z,5.85
2023-01-31T23:18:37.072Z,5.63
2023-01-31T23:21:13.119Z,5.00
2023-01-31T23:23:39.797Z,8.07
2023-01-31T23:26:06.960Z,5.88
2023-01-31T23:28:33.527Z,8.18
2023-01-31T23:31:00.449Z,5.68
2023-01-31T23:33:27.049Z,6.65
2023-01-31T23:35:53.608Z,5.38
2023-01-31T23:38:20.422Z,5.50
2023-01-31T23:40:52.119Z,5.38
2023-01-31T23:43:19.012Z,5.47
2023-01-31T23:45:45.466Z,4.45
2023-01-31T23:48:12.072Z,5.90
2023-01-31T23:50:38.973Z,5.50
2023-01-31T23:53:05.474Z,7.13
2023-01-31T23:55:31.936Z,8.80
2023-01-31T23:57:58.463Z,5.57
